Time;durP1;ratioP1;P1;durP2;ratioP2;P2;SDS_P1;SDS_P2;PMS_P1;PMS_P2;Temp;Humidity;BMP_temperature;BMP_pressure;BME280_temperature;BME280_humidity;BME280_pressure;Samples;Min_cycle;Max_cycle;Signal;HPM_P1;HPM_P2
2022/01/22 00:00:24;;;;;;;18.47;10.67;;;;;;;;;;4958304;28;20224;-62
2022/01/22 00:02:50;;;;;;;23.17;10.57;;;;;;;;;;4955961;28;20256;-61
2022/01/22 00:05:16;;;;;;;17.50;10.73;;;;;;;;;;4961921;28;20254;-62
2022/01/22 00:07:42;;;;;;;16.53;10.50;;;;;;;;;;4963870;28;20253;-62
2022/01/22 00:10:13;;;;;;;21.70;11.40;;;;;;;;;;4958732;28;20490;-63
2022/01/22 00:15:06;;;;;;;25.23;11.30;;;;;;;;;;4960005;28;20202;-62
2022/01/22 00:17:32;;;;;;;20.63;10.87;;;;;;;;;;4957796;28;21958;-62
2022/01/22 00:19:58;;;;;;;14.80;10.70;;;;;;;;;;4938899;28;20218;-62
2022/01/22 00:22:28;;;;;;;19.17;11.00;;;;;;;;;;4956372;28;20251;-61
2022/01/22 00:24:57;;;;;;;19.43;11.50;;;;;;;;;;4961304;28;21230;-62
2022/01/22 00:27:23;;;;;;;16.53;11.13;;;;;;;;;;4959448;28;20193;-62
2022/01/22 00:29:49;;;;;;;19.70;11.37;;;;;;;;;;4955247;28;20453;-63
2022/01/22 00:32:15;;;;;;;21.63;11.30;;;;;;;;;;4954240;28;20225;-63
2022/01/22 00:34:41;;;;;;;20.80;11.63;;;;;;;;;;4959856;28;20326;-63
2022/01/22 00:37:08;;;;;;;18.60;11.27;;;;;;;;;;4967409;28;20306;-63
2022/01/22 00:39:34;;;;;;;18.07;11.43;;;;;;;;;;4971715;28;20221;-63
2022/01/22 00:42:01;;;;;;;18.67;12.67;;;;;;;;;;4970568;28;20308;-63
2022/01/22 00:44:27;;;;;;;21.00;12.20;;;;;;;;;;4968806;28;20710;-62
2022/01/22 00:46:53;;;;;;;20.33;13.13;;;;;;;;;;4973333;28;20225;-61
2022/01/22 00:49:19;;;;;;;18.00;13.27;;;;;;;;;;4952612;28;20574;-63
2022/01/22 00:51:45;;;;;;;22.07;13.67;;;;;;;;;;4968184;28;22704;-63
2022/01/22 00:54:11;;;;;;;19.73;13.30;;;;;;;;;;4971583;28;20189;-63
2022/01/22 00:56:37;;;;;;;19.70;12.60;;;;;;;;;;4965387;28;20392;-62
2022/01/22 00:59:03;;;;;;;25.83;14.20;;;;;;;;;;4969330;28;20232;-62
2022/01/22 01:01:29;;;;;;;19.47;13.50;;;;;;;;;;4968911;28;20225;-62
2022/01/22 01:04:01;;;;;;;23.43;14.30;;;;;;;;;;4969621;28;20375;-62
2022/01/22 01:06:27;;;;;;;25.13;14.47;;;;;;;;;;4950917;28;20241;-62
2022/01/22 01:08:52;;;;;;;25.57;15.27;;;;;;;;;;4966424;28;20224;-62
2022/01/22 01:11:18;;;;;;;20.77;14.77;;;;;;;;;;4979023;28;20222;-62
2022/01/22 01:13:48;;;;;;;25.13;15.07;;;;;;;;;;4978071;28;20219;-62
2022/01/22 01:16:42;;;;;;;24.03;14.90;;;;;;;;;;4962220;28;20221;-62
2022/01/22 01:33:01;;;;;;;27.77;16.90;;;;;;;;;;4962316;28;20335;-61
2022/01/22 01:35:29;;;;;;;26.33;16.50;;;;;;;;;;4965985;28;20224;-62
2022/01/22 01:37:57;;;;;;;23.90;17.00;;;;;;;;;;4960647;28;20224;-61
2022/01/22 01:40:25;;;;;;;27.70;18.07;;;;;;;;;;4963816;28;21777;-62
2022/01/22 01:43:05;;;;;;;28.93;17.43;;;;;;;;;;4964076;28;20214;-62
2022/01/22 01:45:31;;;;;;;22.73;17.33;;;;;;;;;;4959434;28;20355;-62
2022/01/22 01:47:59;;;;;;;25.23;17.47;;;;;;;;;;4961949;28;20194;-61
2022/01/22 01:50:26;;;;;;;28.57;17.80;;;;;;;;;;4968049;28;22052;-62
2022/01/22 01:53:11;;;;;;;28.83;19.07;;;;;;;;;;4954008;28;20299;-62
2022/01/22 01:58:13;;;;;;;24.53;18.67;;;;;;;;;;4958643;28;20654;-61
2022/01/22 02:00:38;;;;;;;21.67;17.00;;;;;;;;;;4957657;28;20221;-62
2022/01/22 02:03:05;;;;;;;22.33;18.03;;;;;;;;;;4963003;28;20919;-63
2022/01/22 02:05:33;;;;;;;26.37;18.73;;;;;;;;;;4965195;28;21201;-62
2022/01/22 02:07:59;;;;;;;26.80;19.13;;;;;;;;;;4966556;28;20221;-64
2022/01/22 02:10:28;;;;;;;27.17;18.77;;;;;;;;;;4962461;28;20580;-65
2022/01/22 02:23:46;;;;;;;25.63;20.03;;;;;;;;;;4965221;28;20526;-64
2022/01/22 02:26:13;;;;;;;34.73;21.87;;;;;;;;;;4958317;28;20260;-64
2022/01/22 02:28:39;;;;;;;28.10;21.57;;;;;;;;;;4967629;28;20236;-64
2022/01/22 02:31:41;;;;;;;28.43;21.57;;;;;;;;;;4964045;28;20304;-63
2022/01/22 02:36:38;;;;;;;30.30;21.63;;;;;;;;;;4966414;28;20958;-63
2022/01/22 02:39:21;;;;;;;30.73;22.33;;;;;;;;;;4969179;28;20651;-62
2022/01/22 02:41:50;;;;;;;28.87;22.67;;;;;;;;;;4969239;28;20950;-64
2022/01/22 02:44:21;;;;;;;34.47;22.87;;;;;;;;;;4962849;28;20735;-64
2022/01/22 02:46:50;;;;;;;29.50;23.30;;;;;;;;;;4968178;28;20233;-63
2022/01/22 02:49:16;;;;;;;31.00;22.93;;;;;;;;;;4965479;28;20236;-64
2022/01/22 02:51:42;;;;;;;35.23;22.13;;;;;;;;;;4969785;28;20225;-64
2022/01/22 02:54:08;;;;;;;31.20;22.07;;;;;;;;;;4957075;28;20801;-64
2022/01/22 02:56:34;;;;;;;30.10;22.87;;;;;;;;;;4964330;28;20620;-63
2022/01/22 02:59:00;;;;;;;29.30;23.27;;;;;;;;;;4960878;28;20222;-63
2022/01/22 03:01:26;;;;;;;34.40;22.83;;;;;;;;;;4963228;28;20585;-63
2022/01/22 03:03:52;;;;;;;32.80;23.37;;;;;;;;;;4957406;28;20722;-64
2022/01/22 03:06:18;;;;;;;33.03;23.90;;;;;;;;;;4960655;28;20226;-63
2022/01/22 03:08:46;;;;;;;34.03;24.10;;;;;;;;;;4957532;28;20218;-63
2022/01/22 03:11:22;;;;;;;37.53;23.23;;;;;;;;;;4962860;28;20515;-63
2022/01/22 03:14:25;;;;;;;33.77;23.57;;;;;;;;;;4967211;28;20218;-63
2022/01/22 03:27:42;;;;;;;39.07;24.33;;;;;;;;;;4968430;28;20671;-63
2022/01/22 03:30:08;;;;;;;32.73;22.87;;;;;;;;;;4958179;28;20967;-64
2022/01/22 03:32:44;;;;;;;35.93;23.63;;;;;;;;;;4959537;28;20198;-64
2022/01/22 03:35:26;;;;;;;30.57;22.13;;;;;;;;;;4929844;28;25006;-64
2022/01/22 03:37:53;;;;;;;33.30;22.73;;;;;;;;;;4960289;28;20670;-64
2022/01/22 03:40:23;;;;;;;33.33;22.37;;;;;;;;;;4968569;28;20300;-63
2022/01/22 03:42:49;;;;;;;31.13;21.17;;;;;;;;;;4968846;28;20251;-64
2022/01/22 03:45:15;;;;;;;35.13;22.97;;;;;;;;;;4938461;28;20190;-64
2022/01/22 03:47:41;;;;;;;28.70;21.97;;;;;;;;;;4961305;28;20632;-64
2022/01/22 03:50:08;;;;;;;37.10;22.83;;;;;;;;;;4963696;28;20225;-64
2022/01/22 03:52:34;;;;;;;34.70;22.70;;;;;;;;;;4958688;28;20447;-64
2022/01/22 03:55:00;;;;;;;30.27;22.10;;;;;;;;;;4940573;28;20408;-64
2022/01/22 03:57:26;;;;;;;39.60;23.50;;;;;;;;;;4956539;28;20189;-64
2022/01/22 03:59:53;;;;;;;38.80;22.40;;;;;;;;;;4955171;28;20231;-64
2022/01/22 04:04:59;;;;;;;35.53;22.43;;;;;;;;;;4955412;28;20240;-63
2022/01/22 04:10:08;;;;;;;30.23;21.93;;;;;;;;;;4963714;28;21017;-63
2022/01/22 04:13:01;;;;;;;36.37;23.70;;;;;;;;;;4945076;28;20222;-63
2022/01/22 04:15:24;;;;;;;37.00;22.83;;;;;;;;;;4958454;28;20209;-63
2022/01/22 04:26:09;;;;;;;33.57;23.13;;;;;;;;;;4959542;28;20808;-63
2022/01/22 04:28:35;;;;;;;34.00;22.93;;;;;;;;;;4960775;28;21529;-63
2022/01/22 04:31:00;;;;;;;39.33;24.20;;;;;;;;;;4958315;28;20226;-64
2022/01/22 04:33:26;;;;;;;40.33;23.37;;;;;;;;;;4950975;28;20226;-63
2022/01/22 04:35:52;;;;;;;35.70;24.70;;;;;;;;;;4958034;28;20221;-62
2022/01/22 04:38:18;;;;;;;38.33;22.87;;;;;;;;;;4951174;28;20293;-63
2022/01/22 04:40:44;;;;;;;37.07;23.57;;;;;;;;;;4960453;28;20226;-63
2022/01/22 04:43:11;;;;;;;39.30;23.70;;;;;;;;;;4966202;28;20915;-63
2022/01/22 04:56:17;;;;;;;38.33;24.63;;;;;;;;;;4956823;28;20228;-63
2022/01/22 04:58:43;;;;;;;33.97;24.50;;;;;;;;;;4940802;28;20706;-63
2022/01/22 05:01:09;;;;;;;39.27;25.17;;;;;;;;;;4961053;28;20336;-63
2022/01/22 05:03:35;;;;;;;33.27;23.73;;;;;;;;;;4960971;28;20299;-63
2022/01/22 05:06:01;;;;;;;36.73;27.00;;;;;;;;;;4960059;28;22026;-63
2022/01/22 05:08:27;;;;;;;37.63;24.93;;;;;;;;;;4958145;28;20948;-63
2022/01/22 05:10:53;;;;;;;37.70;24.47;;;;;;;;;;4962105;28;20447;-63
2022/01/22 05:13:19;;;;;;;36.47;24.50;;;;;;;;;;4943642;28;20229;-64
2022/01/22 05:15:45;;;;;;;38.10;26.17;;;;;;;;;;4944963;28;21163;-63
2022/01/22 05:18:11;;;;;;;36.60;25.43;;;;;;;;;;4970083;28;20194;-63
2022/01/22 05:20:47;;;;;;;41.03;25.60;;;;;;;;;;4964174;28;20209;-63
2022/01/22 05:23:17;;;;;;;35.90;25.57;;;;;;;;;;4970762;28;20217;-63
2022/01/22 05:25:53;;;;;;;37.90;26.00;;;;;;;;;;4968066;28;20223;-62
2022/01/22 05:31:07;;;;;;;39.07;25.10;;;;;;;;;;4965394;28;20283;-64
2022/01/22 05:36:56;;;;;;;42.13;26.73;;;;;;;;;;4970351;28;20312;-63
2022/01/22 05:39:07;;;;;;;36.53;26.60;;;;;;;;;;4970239;28;20244;-63
2022/01/22 05:41:33;;;;;;;40.63;26.40;;;;;;;;;;4966000;28;20813;-65
2022/01/22 05:43:59;;;;;;;38.37;26.60;;;;;;;;;;4963660;28;21594;-63
2022/01/22 05:46:25;;;;;;;37.70;26.57;;;;;;;;;;4969861;28;20780;-63
2022/01/22 05:48:51;;;;;;;42.37;26.90;;;;;;;;;;4967969;28;20222;-63
2022/01/22 05:51:18;;;;;;;31.73;25.47;;;;;;;;;;4958999;28;20768;-63
2022/01/22 06:01:50;;;;;;;36.87;26.20;;;;;;;;;;4964455;28;20349;-63
2022/01/22 06:04:16;;;;;;;35.33;26.13;;;;;;;;;;4964829;28;20598;-63
2022/01/22 06:06:41;;;;;;;37.30;25.93;;;;;;;;;;4959585;28;20307;-64
2022/01/22 06:09:09;;;;;;;40.73;26.47;;;;;;;;;;4960188;28;20213;-63
2022/01/22 06:11:51;;;;;;;38.63;27.23;;;;;;;;;;4959361;28;20186;-64
2022/01/22 06:14:17;;;;;;;41.93;26.30;;;;;;;;;;4964522;28;20299;-63
2022/01/22 06:16:43;;;;;;;37.50;27.27;;;;;;;;;;4967264;28;20774;-64
2022/01/22 06:19:09;;;;;;;40.03;28.03;;;;;;;;;;4975826;28;20244;-63
2022/01/22 06:21:35;;;;;;;41.73;27.50;;;;;;;;;;4965751;28;20340;-63
2022/01/22 06:24:01;;;;;;;40.23;27.70;;;;;;;;;;4963462;28;20205;-62
2022/01/22 06:26:27;;;;;;;40.50;27.40;;;;;;;;;;4964101;28;20312;-63
2022/01/22 06:28:53;;;;;;;37.10;27.20;;;;;;;;;;4958259;28;20694;-63
2022/01/22 06:31:18;;;;;;;36.47;27.13;;;;;;;;;;4958794;28;20222;-64
2022/01/22 06:33:44;;;;;;;38.77;27.23;;;;;;;;;;4959953;28;20808;-63
2022/01/22 06:36:10;;;;;;;39.10;27.47;;;;;;;;;;4957965;28;20298;-63
2022/01/22 06:38:36;;;;;;;37.63;28.17;;;;;;;;;;4967239;28;20190;-63
2022/01/22 06:43:47;;;;;;;42.17;28.03;;;;;;;;;;4968383;28;20715;-64
2022/01/22 06:46:13;;;;;;;42.40;28.73;;;;;;;;;;4961682;28;20686;-64
2022/01/22 06:48:39;;;;;;;42.77;29.37;;;;;;;;;;4954042;28;20699;-64
2022/01/22 06:51:05;;;;;;;47.73;29.57;;;;;;;;;;4965168;28;24880;-64
2022/01/22 06:53:35;;;;;;;45.83;30.03;;;;;;;;;;4965918;28;20226;-64
2022/01/22 06:56:03;;;;;;;45.10;30.97;;;;;;;;;;4971792;28;20221;-63
2022/01/22 06:58:29;;;;;;;45.30;30.57;;;;;;;;;;4972267;28;20315;-64
2022/01/22 07:00:55;;;;;;;47.83;31.20;;;;;;;;;;4968667;28;21192;-64
2022/01/22 07:03:21;;;;;;;48.70;31.73;;;;;;;;;;4966074;28;20652;-63
2022/01/22 07:05:47;;;;;;;44.50;30.63;;;;;;;;;;4970342;28;20305;-63
2022/01/22 07:08:13;;;;;;;46.53;33.53;;;;;;;;;;4968903;28;20221;-63
2022/01/22 07:10:39;;;;;;;44.73;30.50;;;;;;;;;;4962207;28;20248;-62
2022/01/22 07:13:05;;;;;;;45.67;30.03;;;;;;;;;;4962214;28;20245;-63
2022/01/22 07:15:31;;;;;;;46.20;29.97;;;;;;;;;;4964302;28;20691;-63
2022/01/22 07:17:57;;;;;;;50.90;32.87;;;;;;;;;;4962515;28;20217;-63
2022/01/22 07:20:29;;;;;;;53.30;33.10;;;;;;;;;;4963874;28;20367;-63
2022/01/22 07:23:15;;;;;;;47.13;33.37;;;;;;;;;;4971364;28;20225;-62
2022/01/22 07:25:41;;;;;;;51.53;33.67;;;;;;;;;;4966975;28;20256;-64
2022/01/22 07:28:07;;;;;;;50.37;33.03;;;;;;;;;;4968984;28;20313;-63
2022/01/22 07:30:33;;;;;;;46.03;30.10;;;;;;;;;;4971903;28;20241;-62
2022/01/22 07:32:59;;;;;;;51.37;33.23;;;;;;;;;;4981951;28;20198;-63
2022/01/22 07:35:25;;;;;;;49.80;33.03;;;;;;;;;;4970288;28;20269;-63
2022/01/22 07:37:51;;;;;;;48.63;32.53;;;;;;;;;;4947979;28;20230;-63
2022/01/22 07:40:17;;;;;;;50.13;33.07;;;;;;;;;;4967600;28;20400;-63
2022/01/22 07:42:43;;;;;;;46.00;32.77;;;;;;;;;;4965608;28;20225;-62
2022/01/22 07:45:09;;;;;;;54.30;32.93;;;;;;;;;;4972050;28;20796;-63
2022/01/22 07:47:35;;;;;;;45.47;31.60;;;;;;;;;;4972291;28;20277;-63
2022/01/22 07:50:01;;;;;;;58.07;34.73;;;;;;;;;;4966511;28;22036;-62
2022/01/22 07:52:27;;;;;;;49.57;33.17;;;;;;;;;;4970549;28;20590;-63
2022/01/22 07:54:53;;;;;;;45.07;31.17;;;;;;;;;;4968226;28;20597;-63
2022/01/22 07:57:19;;;;;;;48.90;33.13;;;;;;;;;;4962366;28;20194;-63
2022/01/22 07:59:45;;;;;;;46.80;32.63;;;;;;;;;;4962614;28;20209;-63
2022/01/22 08:02:13;;;;;;;46.87;32.90;;;;;;;;;;4967665;28;20217;-63
2022/01/22 08:04:39;;;;;;;46.53;32.73;;;;;;;;;;4972486;28;20232;-63
2022/01/22 08:07:05;;;;;;;49.93;33.87;;;;;;;;;;4971470;28;20225;-62
2022/01/22 08:09:31;;;;;;;55.43;33.23;;;;;;;;;;4950744;28;20248;-63
2022/01/22 08:11:59;;;;;;;48.43;32.93;;;;;;;;;;4940724;28;20208;-63
2022/01/22 08:14:25;;;;;;;51.40;34.23;;;;;;;;;;4954995;28;21610;-63
2022/01/22 08:16:50;;;;;;;60.03;34.37;;;;;;;;;;4970220;28;20249;-62
2022/01/22 08:19:17;;;;;;;55.23;34.57;;;;;;;;;;4967119;28;20316;-62
2022/01/22 08:21:43;;;;;;;53.60;32.80;;;;;;;;;;4970601;28;20281;-65
2022/01/22 08:24:10;;;;;;;55.63;34.03;;;;;;;;;;4981029;28;20208;-64
2022/01/22 08:26:41;;;;;;;50.00;32.90;;;;;;;;;;4973013;28;20225;-63
2022/01/22 08:29:07;;;;;;;58.93;34.20;;;;;;;;;;4964298;28;20323;-63
2022/01/22 08:36:44;;;;;;;55.57;35.77;;;;;;;;;;4967167;28;20317;-66
2022/01/22 08:39:10;;;;;;;54.43;35.87;;;;;;;;;;4967871;28;20197;-65
2022/01/22 08:41:36;;;;;;;47.87;33.47;;;;;;;;;;4952999;28;20647;-66
2022/01/22 08:44:03;;;;;;;46.83;32.30;;;;;;;;;;4972204;28;20222;-66
2022/01/22 08:46:29;;;;;;;47.03;32.37;;;;;;;;;;4968898;28;20225;-68
2022/01/22 08:48:55;;;;;;;46.73;33.20;;;;;;;;;;4966669;28;20732;-66
2022/01/22 08:51:21;;;;;;;47.77;31.80;;;;;;;;;;4970417;28;20815;-66
2022/01/22 08:53:47;;;;;;;47.83;31.70;;;;;;;;;;4969195;28;20672;-66
2022/01/22 08:56:13;;;;;;;51.00;31.93;;;;;;;;;;4951456;28;20229;-66
2022/01/22 08:58:39;;;;;;;44.13;30.07;;;;;;;;;;4971092;28;21928;-66
2022/01/22 09:01:05;;;;;;;43.57;27.93;;;;;;;;;;4968942;28;20228;-69
2022/01/22 09:03:31;;;;;;;43.97;29.83;;;;;;;;;;4968793;28;20233;-67
2022/01/22 09:05:57;;;;;;;43.27;29.57;;;;;;;;;;4953094;28;20243;-67
2022/01/22 09:08:24;;;;;;;43.07;31.23;;;;;;;;;;4967114;28;20786;-67
2022/01/22 09:10:52;;;;;;;44.47;29.43;;;;;;;;;;4967747;28;20573;-67
2022/01/22 09:13:18;;;;;;;38.77;28.63;;;;;;;;;;4973174;28;20226;-67
2022/01/22 09:15:44;;;;;;;42.80;29.23;;;;;;;;;;4955045;28;20218;-66
2022/01/22 09:18:10;;;;;;;38.37;28.30;;;;;;;;;;4964707;28;20209;-67
2022/01/22 09:23:08;;;;;;;36.43;26.87;;;;;;;;;;4958408;28;20228;-66
2022/01/22 09:25:34;;;;;;;39.13;26.90;;;;;;;;;;4970459;28;20797;-66
2022/01/22 09:28:00;;;;;;;35.73;26.07;;;;;;;;;;4965772;28;20214;-66
2022/01/22 09:30:26;;;;;;;35.53;25.73;;;;;;;;;;4968569;28;21218;-67
2022/01/22 09:32:52;;;;;;;33.23;24.43;;;;;;;;;;4968037;28;20278;-67
2022/01/22 09:35:18;;;;;;;34.73;26.07;;;;;;;;;;4969667;28;20832;-66
2022/01/22 09:37:44;;;;;;;34.23;25.83;;;;;;;;;;4967488;28;20312;-68
2022/01/22 09:40:12;;;;;;;35.97;24.17;;;;;;;;;;4975109;28;20228;-68
2022/01/22 09:42:38;;;;;;;35.93;26.47;;;;;;;;;;4974392;28;20236;-67
2022/01/22 09:45:04;;;;;;;33.33;26.13;;;;;;;;;;4980149;28;20251;-67
2022/01/22 09:47:30;;;;;;;33.23;24.97;;;;;;;;;;4981577;28;20724;-66
2022/01/22 09:49:56;;;;;;;32.90;24.97;;;;;;;;;;4977964;28;20229;-67
2022/01/22 09:52:22;;;;;;;38.50;25.57;;;;;;;;;;4952634;28;20217;-66
2022/01/22 09:54:48;;;;;;;38.17;26.37;;;;;;;;;;4956816;28;20256;-66
2022/01/22 09:57:14;;;;;;;41.00;26.57;;;;;;;;;;4971326;28;20464;-66
2022/01/22 09:59:40;;;;;;;37.17;27.07;;;;;;;;;;4969641;28;20648;-66
2022/01/22 10:02:10;;;;;;;33.70;26.47;;;;;;;;;;4974904;28;20229;-66
2022/01/22 10:04:37;;;;;;;40.40;27.80;;;;;;;;;;4973798;28;20225;-66
2022/01/22 10:07:03;;;;;;;37.17;27.37;;;;;;;;;;4974058;28;20237;-66
2022/01/22 10:09:35;;;;;;;36.47;26.50;;;;;;;;;;4970085;28;20244;-67
2022/01/22 10:12:12;;;;;;;38.87;27.27;;;;;;;;;;4975972;28;20189;-67
2022/01/22 10:14:58;;;;;;;36.40;26.40;;;;;;;;;;4952331;28;20898;-68
2022/01/22 10:17:39;;;;;;;37.63;27.00;;;;;;;;;;4961735;28;20687;-66
2022/01/22 10:20:05;;;;;;;36.07;27.43;;;;;;;;;;4980022;28;20225;-66
2022/01/22 10:22:44;;;;;;;35.60;26.90;;;;;;;;;;4969182;28;20249;-67
2022/01/22 10:25:19;;;;;;;55.17;28.93;;;;;;;;;;4940811;28;20320;-66
2022/01/22 10:27:51;;;;;;;41.57;27.47;;;;;;;;;;4978522;28;20217;-65
2022/01/22 10:30:19;;;;;;;37.13;26.60;;;;;;;;;;4977740;28;20216;-65
2022/01/22 10:32:59;;;;;;;41.13;29.43;;;;;;;;;;4978653;28;20423;-65
2022/01/22 10:35:26;;;;;;;37.20;27.70;;;;;;;;;;4972943;28;20317;-65
2022/01/22 10:37:55;;;;;;;36.60;26.73;;;;;;;;;;4978649;28;20236;-65
2022/01/22 10:40:27;;;;;;;34.53;26.63;;;;;;;;;;4982513;28;20248;-65
2022/01/22 10:43:17;;;;;;;34.23;25.60;;;;;;;;;;4960928;28;20881;-65
2022/01/22 10:45:56;;;;;;;37.67;26.13;;;;;;;;;;4983871;28;20228;-66
2022/01/22 10:48:22;;;;;;;42.00;27.57;;;;;;;;;;4963170;28;20228;-66
2022/01/22 10:51:01;;;;;;;32.80;25.10;;;;;;;;;;4966342;28;20292;-66
2022/01/22 10:53:43;;;;;;;34.40;25.10;;;;;;;;;;4982968;28;20252;-67
2022/01/22 10:56:10;;;;;;;29.40;22.87;;;;;;;;;;4974252;28;20257;-67
2022/01/22 10:58:36;;;;;;;30.33;23.00;;;;;;;;;;4980069;28;20618;-67
2022/01/22 11:01:03;;;;;;;29.50;22.33;;;;;;;;;;4961124;28;20229;-66
2022/01/22 11:03:29;;;;;;;25.47;20.50;;;;;;;;;;4968802;28;20241;-66
2022/01/22 11:05:56;;;;;;;23.70;19.70;;;;;;;;;;4988759;28;20240;-67
2022/01/22 11:08:22;;;;;;;25.83;20.00;;;;;;;;;;4987937;28;20738;-66
2022/01/22 11:10:49;;;;;;;27.37;20.53;;;;;;;;;;4972533;28;20331;-67
2022/01/22 11:13:15;;;;;;;25.00;19.30;;;;;;;;;;4976145;28;20221;-66
2022/01/22 11:15:41;;;;;;;24.27;18.77;;;;;;;;;;4973661;28;20236;-67
2022/01/22 11:18:07;;;;;;;28.73;18.27;;;;;;;;;;4966343;28;20218;-65
2022/01/22 11:20:33;;;;;;;25.90;18.33;;;;;;;;;;4958832;28;20695;-67
2022/01/22 11:22:59;;;;;;;23.20;17.97;;;;;;;;;;4957284;28;20221;-67
2022/01/22 11:25:26;;;;;;;23.03;17.40;;;;;;;;;;4961842;28;20598;-68
2022/01/22 11:27:52;;;;;;;21.20;16.60;;;;;;;;;;4958468;28;22331;-67
2022/01/22 11:30:18;;;;;;;21.40;16.33;;;;;;;;;;4995099;28;20427;-67
2022/01/22 11:32:49;;;;;;;26.73;18.13;;;;;;;;;;4965664;28;20380;-67
2022/01/22 11:35:18;;;;;;;24.53;16.93;;;;;;;;;;4952957;28;20336;-68
2022/01/22 11:37:49;;;;;;;27.57;17.70;;;;;;;;;;4942554;28;20225;-68
2022/01/22 11:40:19;;;;;;;26.17;17.80;;;;;;;;;;4944257;28;20329;-67
2022/01/22 11:43:21;;;;;;;28.70;19.17;;;;;;;;;;4937011;28;20583;-62
2022/01/22 11:45:53;;;;;;;32.37;19.53;;;;;;;;;;4954378;28;20319;-62
2022/01/22 11:48:26;;;;;;;27.20;18.93;;;;;;;;;;4958262;28;20205;-62
2022/01/22 11:50:53;;;;;;;29.43;20.10;;;;;;;;;;4958198;28;20994;-62
2022/01/22 11:53:22;;;;;;;26.30;19.03;;;;;;;;;;4963659;28;20324;-63
2022/01/22 11:56:07;;;;;;;29.43;21.37;;;;;;;;;;4951837;28;20221;-62
2022/01/22 11:58:33;;;;;;;29.73;20.60;;;;;;;;;;4951462;28;20629;-62
2022/01/22 12:00:58;;;;;;;33.70;22.57;;;;;;;;;;4931895;28;20296;-62
2022/01/22 12:03:24;;;;;;;26.43;19.70;;;;;;;;;;4949739;28;20209;-62
2022/01/22 12:05:53;;;;;;;30.00;20.93;;;;;;;;;;4956713;28;20780;-62
2022/01/22 12:08:19;;;;;;;31.07;21.17;;;;;;;;;;4953103;28;20217;-63
2022/01/22 12:14:27;;;;;;;32.03;21.60;;;;;;;;;;4954991;28;20230;-63
2022/01/22 12:16:18;;;;;;;28.57;22.00;;;;;;;;;;4957376;28;20293;-63
2022/01/22 12:18:57;;;;;;;26.80;21.07;;;;;;;;;;4941101;28;20252;-63
2022/01/22 12:23:56;;;;;;;33.47;22.30;;;;;;;;;;4963046;28;20209;-64
2022/01/22 12:26:41;;;;;;;32.47;22.73;;;;;;;;;;4962255;28;20221;-64
2022/01/22 12:29:26;;;;;;;32.63;22.77;;;;;;;;;;4965501;28;20225;-64
2022/01/22 12:32:05;;;;;;;30.00;22.87;;;;;;;;;;4968122;28;20228;-64
2022/01/22 12:34:50;;;;;;;29.47;22.53;;;;;;;;;;4948243;28;20563;-64
2022/01/22 12:37:17;;;;;;;29.43;22.13;;;;;;;;;;4963597;28;20221;-64
2022/01/22 12:39:48;;;;;;;31.87;21.93;;;;;;;;;;4963554;28;20584;-64
2022/01/22 12:42:24;;;;;;;33.30;21.87;;;;;;;;;;4964913;28;20205;-64
2022/01/22 12:44:56;;;;;;;34.37;22.93;;;;;;;;;;4961594;28;20204;-65
2022/01/22 12:47:22;;;;;;;33.23;23.47;;;;;;;;;;4972301;28;20233;-64
2022/01/22 12:49:57;;;;;;;32.73;23.43;;;;;;;;;;4945275;28;20226;-64
2022/01/22 12:52:25;;;;;;;29.33;23.00;;;;;;;;;;4966397;28;20221;-64
2022/01/22 12:54:56;;;;;;;30.63;23.70;;;;;;;;;;4940711;28;20325;-64
2022/01/22 12:57:25;;;;;;;33.80;25.20;;;;;;;;;;4955801;28;20876;-64
2022/01/22 12:59:51;;;;;;;33.67;23.47;;;;;;;;;;4932707;28;21650;-65
2022/01/22 13:02:18;;;;;;;37.57;24.80;;;;;;;;;;4971647;28;20220;-64
2022/01/22 13:05:04;;;;;;;28.90;23.57;;;;;;;;;;4974479;28;20284;-64
2022/01/22 13:07:37;;;;;;;32.30;23.53;;;;;;;;;;4960037;28;20239;-65
2022/01/22 13:10:06;;;;;;;34.50;23.47;;;;;;;;;;4953720;28;20722;-65
2022/01/22 13:12:33;;;;;;;30.53;23.00;;;;;;;;;;4952961;28;20806;-64
2022/01/22 13:14:59;;;;;;;30.20;23.53;;;;;;;;;;4956014;28;20243;-64
2022/01/22 13:17:31;;;;;;;31.07;23.40;;;;;;;;;;4939209;28;20220;-64
2022/01/22 13:19:58;;;;;;;31.90;23.83;;;;;;;;;;4967088;28;20217;-64
2022/01/22 13:22:33;;;;;;;28.97;22.90;;;;;;;;;;4949779;28;20253;-65
2022/01/22 13:25:07;;;;;;;31.90;23.47;;;;;;;;;;4966605;28;20227;-64
2022/01/22 13:27:33;;;;;;;30.07;23.53;;;;;;;;;;4970127;28;20787;-63
2022/01/22 13:29:59;;;;;;;37.70;24.10;;;;;;;;;;4971997;28;20227;-63
2022/01/22 13:41:06;;;;;;;32.30;22.63;;;;;;;;;;4966354;28;20252;-64
2022/01/22 13:49:05;;;;;;;31.53;23.90;;;;;;;;;;4952069;28;20291;-63
2022/01/22 13:51:31;;;;;;;37.67;25.13;;;;;;;;;;4966647;28;20856;-63
2022/01/22 13:53:57;;;;;;;32.13;25.23;;;;;;;;;;4970677;28;20228;-64
2022/01/22 13:56:47;;;;;;;36.53;25.37;;;;;;;;;;4974381;28;20221;-64
2022/01/22 13:59:27;;;;;;;33.23;25.13;;;;;;;;;;4966948;28;20225;-64
2022/01/22 14:02:11;;;;;;;38.07;26.40;;;;;;;;;;4957977;28;20395;-65
2022/01/22 14:04:47;;;;;;;36.77;24.97;;;;;;;;;;4968492;28;20229;-64
2022/01/22 14:07:34;;;;;;;34.97;26.13;;;;;;;;;;4951926;28;21856;-64
2022/01/22 14:10:04;;;;;;;36.93;26.97;;;;;;;;;;4950327;28;21563;-64
2022/01/22 14:12:36;;;;;;;42.60;27.37;;;;;;;;;;4954442;28;20226;-63
2022/01/22 14:15:12;;;;;;;41.13;28.17;;;;;;;;;;4948825;28;20194;-65
2022/01/22 14:17:53;;;;;;;40.50;29.63;;;;;;;;;;4951218;28;20236;-63
2022/01/22 14:20:22;;;;;;;40.70;28.03;;;;;;;;;;4945891;28;20218;-66
2022/01/22 14:23:15;;;;;;;40.87;29.43;;;;;;;;;;4952612;28;20308;-64
2022/01/22 14:25:54;;;;;;;40.90;29.47;;;;;;;;;;4943717;28;20257;-63
2022/01/22 14:28:20;;;;;;;36.87;28.07;;;;;;;;;;4952301;28;20592;-64
2022/01/22 14:30:46;;;;;;;40.20;29.27;;;;;;;;;;4952460;28;20234;-63
2022/01/22 14:33:13;;;;;;;38.87;29.67;;;;;;;;;;4953008;28;20202;-63
2022/01/22 14:35:39;;;;;;;39.70;30.37;;;;;;;;;;4954361;28;20198;-64
2022/01/22 14:38:21;;;;;;;44.83;29.70;;;;;;;;;;4949984;28;20222;-64
2022/01/22 14:44:01;;;;;;;45.10;29.67;;;;;;;;;;4949565;28;20285;-64
2022/01/22 14:46:27;;;;;;;41.63;29.80;;;;;;;;;;4953977;28;20215;-64
2022/01/22 14:48:53;;;;;;;41.77;30.20;;;;;;;;;;4943360;28;20227;-64
2022/01/22 14:51:19;;;;;;;40.70;29.73;;;;;;;;;;4952603;28;20754;-64
2022/01/22 14:53:45;;;;;;;37.47;29.60;;;;;;;;;;4947952;28;20244;-62
2022/01/22 14:56:11;;;;;;;43.97;29.80;;;;;;;;;;4945810;28;20787;-64
2022/01/22 14:58:38;;;;;;;42.83;31.13;;;;;;;;;;4935340;28;21359;-64
2022/01/22 15:01:04;;;;;;;39.43;29.63;;;;;;;;;;4949190;28;20218;-64
2022/01/22 15:03:29;;;;;;;38.40;29.07;;;;;;;;;;4933260;28;20275;-64
2022/01/22 15:05:55;;;;;;;39.53;29.00;;;;;;;;;;4942100;28;20270;-64
2022/01/22 15:08:21;;;;;;;41.07;29.83;;;;;;;;;;4968849;28;20297;-64
2022/01/22 15:10:47;;;;;;;38.40;28.90;;;;;;;;;;4965829;28;20273;-65
2022/01/22 15:13:13;;;;;;;42.13;30.27;;;;;;;;;;4961088;28;20221;-65
2022/01/22 15:15:41;;;;;;;42.23;29.07;;;;;;;;;;4958366;28;20230;-67
2022/01/22 15:18:14;;;;;;;40.77;29.23;;;;;;;;;;4944789;28;20197;-66
2022/01/22 15:20:40;;;;;;;41.87;29.50;;;;;;;;;;4972957;28;20228;-67
2022/01/22 15:23:06;;;;;;;39.27;27.70;;;;;;;;;;4971382;28;20340;-66
2022/01/22 15:25:32;;;;;;;39.37;27.83;;;;;;;;;;4970205;28;20222;-68
2022/01/22 15:27:58;;;;;;;41.83;28.40;;;;;;;;;;4964603;28;20407;-67
2022/01/22 15:30:30;;;;;;;44.37;29.30;;;;;;;;;;4961997;28;21361;-69
2022/01/22 15:33:02;;;;;;;39.57;28.00;;;;;;;;;;4969304;28;20183;-67
2022/01/22 15:35:28;;;;;;;38.83;29.83;;;;;;;;;;4964513;28;20694;-67
2022/01/22 15:37:57;;;;;;;45.03;29.93;;;;;;;;;;4972137;28;20252;-67
2022/01/22 15:40:24;;;;;;;43.83;28.13;;;;;;;;;;4950591;28;20655;-67
2022/01/22 15:42:50;;;;;;;44.73;30.00;;;;;;;;;;4965291;28;20256;-68
2022/01/22 15:45:16;;;;;;;45.30;30.17;;;;;;;;;;4943870;28;20222;-67
2022/01/22 15:47:42;;;;;;;43.37;29.03;;;;;;;;;;4947515;28;20198;-68
2022/01/22 15:50:09;;;;;;;42.27;30.00;;;;;;;;;;4970331;28;20241;-67
2022/01/22 15:52:35;;;;;;;39.43;29.73;;;;;;;;;;4970851;28;21323;-67
2022/01/22 15:55:01;;;;;;;41.43;29.80;;;;;;;;;;4974224;28;20213;-66
2022/01/22 15:57:27;;;;;;;38.70;29.60;;;;;;;;;;4976581;28;20400;-67
2022/01/22 15:59:53;;;;;;;49.10;30.53;;;;;;;;;;4968928;28;20244;-67
2022/01/22 16:02:20;;;;;;;42.77;30.67;;;;;;;;;;4970689;28;26483;-67
2022/01/22 16:04:50;;;;;;;43.60;30.17;;;;;;;;;;4968137;28;20831;-67
2022/01/22 16:07:23;;;;;;;45.13;30.00;;;;;;;;;;4955631;28;20236;-66
2022/01/22 16:09:53;;;;;;;42.90;29.37;;;;;;;;;;4968601;28;20233;-66
2022/01/22 16:12:19;;;;;;;40.20;28.97;;;;;;;;;;4971847;28;20202;-67
2022/01/22 16:14:45;;;;;;;40.10;28.53;;;;;;;;;;4957111;28;20283;-67
2022/01/22 16:17:16;;;;;;;42.43;31.83;;;;;;;;;;4970470;28;20225;-66
2022/01/22 16:19:42;;;;;;;42.90;31.07;;;;;;;;;;4957197;28;20687;-65